sensor_id;sensor_type;location;lat;lon;timestamp;pressure;altitude;pressure_sealevel;temperature;humidity
77631;BME280;66798;47.370;8.552;2023-04-16T00:00:59;96686.72;;;6.43;90.38
77631;BME280;66798;47.370;8.552;2023-04-16T00:03:25;96678.25;;;6.35;90.34
77631;BME280;66798;47.370;8.552;2023-04-16T00:05:51;96687.41;;;6.38;90.25
77631;BME280;66798;47.370;8.552;2023-04-16T00:08:20;96675.31;;;6.32;89.79
77631;BME280;66798;47.370;8.552;2023-04-16T00:10:45;96677.88;;;6.44;89.53
77631;BME280;66798;47.370;8.552;2023-04-16T00:13:11;96682.69;;;6.35;90.13
77631;BME280;66798;47.370;8.552;2023-04-16T00:15:36;96691.94;;;6.26;90.02
77631;BME280;66798;47.370;8.552;2023-04-16T00:18:02;96684.50;;;6.34;90.24
77631;BME280;66798;47.370;8.552;2023-04-16T00:20:27;96683.88;;;6.44;89.32
77631;BME280;66798;47.370;8.552;2023-04-16T00:22:53;96674.75;;;6.47;88.68
77631;BME280;66798;47.370;8.552;2023-04-16T00:25:18;96676.09;;;6.49;88.21
77631;BME280;66798;47.370;8.552;2023-04-16T00:27:43;96676.88;;;6.67;88.22
77631;BME280;66798;47.370;8.552;2023-04-16T00:30:09;96679.41;;;6.78;87.86
77631;BME280;66798;47.370;8.552;2023-04-16T00:32:34;96684.97;;;6.82;87.29
77631;BME280;66798;47.370;8.552;2023-04-16T00:35:00;96681.72;;;6.75;88.30
77631;BME280;66798;47.370;8.552;2023-04-16T00:37:25;96687.31;;;6.84;88.01
77631;BME280;66798;47.370;8.552;2023-04-16T00:39:51;96687.94;;;6.91;87.98
77631;BME280;66798;47.370;8.552;2023-04-16T00:42:16;96680.66;;;6.93;87.93
77631;BME280;66798;47.370;8.552;2023-04-16T00:44:42;96688.09;;;7.01;87.62
77631;BME280;66798;47.370;8.552;2023-04-16T00:47:07;96683.50;;;7.08;87.29
77631;BME280;66798;47.370;8.552;2023-04-16T00:49:34;96689.50;;;7.09;87.18
77631;BME280;66798;47.370;8.552;2023-04-16T00:52:00;96681.66;;;7.09;86.54
77631;BME280;66798;47.370;8.552;2023-04-16T00:54:27;96680.47;;;6.99;86.89
77631;BME280;66798;47.370;8.552;2023-04-16T00:56:54;96682.63;;;6.86;88.07
77631;BME280;66798;47.370;8.552;2023-04-16T00:59:21;96689.88;;;6.78;87.82
77631;BME280;66798;47.370;8.552;2023-04-16T01:01:46;96685.28;;;6.69;87.92
77631;BME280;66798;47.370;8.552;2023-04-16T01:04:12;96688.59;;;6.81;87.68
77631;BME280;66798;47.370;8.552;2023-04-16T01:06:38;96684.63;;;6.78;87.65
77631;BME280;66798;47.370;8.552;2023-04-16T01:09:04;96688.13;;;6.67;88.28
77631;BME280;66798;47.370;8.552;2023-04-16T01:11:29;96688.97;;;6.90;88.34
77631;BME280;66798;47.370;8.552;2023-04-16T01:13:55;96685.13;;;6.75;86.99
77631;BME280;66798;47.370;8.552;2023-04-16T01:16:20;96684.50;;;6.68;88.68
77631;BME280;66798;47.370;8.552;2023-04-16T01:18:46;96677.41;;;6.86;87.83
77631;BME280;66798;47.370;8.552;2023-04-16T01:21:11;96687.50;;;6.77;88.30
77631;BME280;66798;47.370;8.552;2023-04-16T01:23:37;96691.69;;;6.78;87.02
77631;BME280;66798;47.370;8.552;2023-04-16T01:26:05;96687.31;;;6.84;87.82
77631;BME280;66798;47.370;8.552;2023-04-16T01:28:31;96690.75;;;6.84;87.47
77631;BME280;66798;47.370;8.552;2023-04-16T01:30:56;96679.97;;;6.80;86.41
77631;BME280;66798;47.370;8.552;2023-04-16T01:33:21;96682.19;;;6.72;87.49
77631;BME280;66798;47.370;8.552;2023-04-16T01:35:47;96688.94;;;6.68;87.91
77631;BME280;66798;47.370;8.552;2023-04-16T01:38:12;96689.88;;;6.78;87.14
77631;BME280;66798;47.370;8.552;2023-04-16T01:40:38;96691.47;;;6.79;87.29
77631;BME280;66798;47.370;8.552;2023-04-16T01:43:03;96692.09;;;6.87;86.51
77631;BME280;66798;47.370;8.552;2023-04-16T01:45:33;96702.84;;;6.90;86.46
77631;BME280;66798;47.370;8.552;2023-04-16T01:47:59;96702.13;;;6.95;86.46
77631;BME280;66798;47.370;8.552;2023-04-16T01:50:25;96701.34;;;6.94;86.60
77631;BME280;66798;47.370;8.552;2023-04-16T01:52:51;96707.28;;;6.90;85.96
77631;BME280;66798;47.370;8.552;2023-04-16T01:55:16;96704.75;;;6.95;86.26
77631;BME280;66798;47.370;8.552;2023-04-16T01:57:42;96701.50;;;6.88;86.21
77631;BME280;66798;47.370;8.552;2023-04-16T02:00:07;96701.44;;;6.83;86.96
77631;BME280;66798;47.370;8.552;2023-04-16T02:02:34;96711.34;;;6.80;88.21
77631;BME280;66798;47.370;8.552;2023-04-16T02:05:00;96713.09;;;6.75;87.53
77631;BME280;66798;47.370;8.552;2023-04-16T02:07:26;96713.00;;;6.70;87.44
77631;BME280;66798;47.370;8.552;2023-04-16T02:09:51;96710.84;;;6.67;88.10
77631;BME280;66798;47.370;8.552;2023-04-16T02:12:17;96714.16;;;6.79;87.91
77631;BME280;66798;47.370;8.552;2023-04-16T02:14:43;96714.34;;;6.72;86.52
77631;BME280;66798;47.370;8.552;2023-04-16T02:17:09;96709.66;;;6.74;86.90
77631;BME280;66798;47.370;8.552;2023-04-16T02:19:35;96718.06;;;6.76;87.33
77631;BME280;66798;47.370;8.552;2023-04-16T02:22:00;96715.78;;;6.63;87.33
77631;BME280;66798;47.370;8.552;2023-04-16T02:24:26;96718.06;;;6.76;86.51
77631;BME280;66798;47.370;8.552;2023-04-16T02:26:53;96712.44;;;6.85;86.73
77631;BME280;66798;47.370;8.552;2023-04-16T02:29:19;96709.41;;;6.93;85.92
77631;BME280;66798;47.370;8.552;2023-04-16T02:31:45;96717.31;;;6.98;85.75
77631;BME280;66798;47.370;8.552;2023-04-16T02:34:11;96720.44;;;6.95;85.72
77631;BME280;66798;47.370;8.552;2023-04-16T02:36:37;96716.25;;;6.77;85.39
77631;BME280;66798;47.370;8.552;2023-04-16T02:39:03;96721.78;;;6.80;86.17
77631;BME280;66798;47.370;8.552;2023-04-16T02:41:29;96711.25;;;6.92;85.67
77631;BME280;66798;47.370;8.552;2023-04-16T02:43:54;96721.69;;;6.92;85.41
77631;BME280;66798;47.370;8.552;2023-04-16T02:46:20;96718.47;;;6.85;86.13
77631;BME280;66798;47.370;8.552;2023-04-16T02:48:46;96725.50;;;6.85;86.20
77631;BME280;66798;47.370;8.552;2023-04-16T02:51:11;96719.31;;;6.91;86.41
77631;BME280;66798;47.370;8.552;2023-04-16T02:53:37;96722.84;;;6.79;86.15
77631;BME280;66798;47.370;8.552;2023-04-16T02:56:03;96716.75;;;6.96;86.17
77631;BME280;66798;47.370;8.552;2023-04-16T02:58:28;96721.50;;;6.77;86.14
77631;BME280;66798;47.370;8.552;2023-04-16T03:00:54;96723.69;;;6.85;85.84
77631;BME280;66798;47.370;8.552;2023-04-16T03:03:20;96719.09;;;6.75;85.65
77631;BME280;66798;47.370;8.552;2023-04-16T03:05:46;96721.50;;;6.77;85.61
77631;BME280;66798;47.370;8.552;2023-04-16T03:08:12;96720.50;;;6.83;86.15
77631;BME280;66798;47.370;8.552;2023-04-16T03:10:38;96714.16;;;6.96;85.92
77631;BME280;66798;47.370;8.552;2023-04-16T03:13:03;96716.59;;;7.02;85.47
77631;BME280;66798;47.370;8.552;2023-04-16T03:15:30;96714.91;;;6.91;85.12
77631;BME280;66798;47.370;8.552;2023-04-16T03:17:56;96717.34;;;6.81;85.40
77631;BME280;66798;47.370;8.552;2023-04-16T03:20:21;96720.75;;;6.81;85.78
77631;BME280;66798;47.370;8.552;2023-04-16T03:22:48;96719.97;;;6.81;85.88
77631;BME280;66798;47.370;8.552;2023-04-16T03:25:14;96718.06;;;6.76;85.64
77631;BME280;66798;47.370;8.552;2023-04-16T03:27:40;96722.91;;;6.85;86.35
77631;BME280;66798;47.370;8.552;2023-04-16T03:30:06;96721.06;;;6.85;86.17
77631;BME280;66798;47.370;8.552;2023-04-16T03:32:32;96722.34;;;6.83;86.50
77631;BME280;66798;47.370;8.552;2023-04-16T03:34:58;96728.13;;;6.85;85.42
77631;BME280;66798;47.370;8.552;2023-04-16T03:37:23;96727.88;;;6.69;86.37
77631;BME280;66798;47.370;8.552;2023-04-16T03:39:48;96727.72;;;6.76;85.16
77631;BME280;66798;47.370;8.552;2023-04-16T03:42:14;96738.03;;;6.83;85.44
77631;BME280;66798;47.370;8.552;2023-04-16T03:44:40;96735.00;;;6.74;85.21
77631;BME280;66798;47.370;8.552;2023-04-16T03:47:05;96736.63;;;6.75;85.70
77631;BME280;66798;47.370;8.552;2023-04-16T03:49:31;96728.13;;;6.68;86.04
77631;BME280;66798;47.370;8.552;2023-04-16T03:51:56;96733.75;;;6.59;86.12
77631;BME280;66798;47.370;8.552;2023-04-16T03:54:22;96729.78;;;6.57;86.44
77631;BME280;66798;47.370;8.552;2023-04-16T03:56:47;96738.25;;;6.64;87.00
77631;BME280;66798;47.370;8.552;2023-04-16T03:59:12;96737.72;;;6.62;86.98
77631;BME280;66798;47.370;8.552;2023-04-16T04:01:38;96742.56;;;6.70;86.89
77631;BME280;66798;47.370;8.552;2023-04-16T04:04:03;96741.03;;;6.57;86.74
77631;BME280;66798;47.370;8.552;2023-04-16T04:06:29;96737.06;;;6.72;86.17
77631;BME280;66798;47.370;8.552;2023-04-16T04:08:55;96733.03;;;6.64;86.65
77631;BME280;66798;47.370;8.552;2023-04-16T04:11:20;96730.41;;;6.81;86.41
77631;BME280;66798;47.370;8.552;2023-04-16T04:13:46;96734.69;;;6.87;85.73
77631;BME280;66798;47.370;8.552;2023-04-16T04:16:11;96729.16;;;6.67;86.89
77631;BME280;66798;47.370;8.552;2023-04-16T04:18:37;96731.06;;;6.54;87.64
77631;BME280;66798;47.370;8.552;2023-04-16T04:21:06;96736.44;;;6.48;87.65
77631;BME280;66798;47.370;8.552;2023-04-16T04:23:32;96735.56;;;6.59;86.90
77631;BME280;66798;47.370;8.552;2023-04-16T04:25:58;96734.22;;;6.56;87.06
77631;BME280;66798;47.370;8.552;2023-04-16T04:28:23;96733.59;;;6.49;87.81
77631;BME280;66798;47.370;8.552;2023-04-16T04:30:49;96740.44;;;6.38;88.36
77631;BME280;66798;47.370;8.552;2023-04-16T04:33:14;96741.72;;;6.36;88.33
77631;BME280;66798;47.370;8.552;2023-04-16T04:35:40;96742.38;;;6.43;88.17
77631;BME280;66798;47.370;8.552;2023-04-16T04:38:05;96744.66;;;6.40;88.42
77631;BME280;66798;47.370;8.552;2023-04-16T04:40:31;96744.81;;;6.50;87.61
77631;BME280;66798;47.370;8.552;2023-04-16T04:42:56;96748.94;;;6.46;87.96
77631;BME280;66798;47.370;8.552;2023-04-16T04:45:22;96757.16;;;6.37;88.06
77631;BME280;66798;47.370;8.552;2023-04-16T04:47:53;96761.84;;;6.35;87.86
77631;BME280;66798;47.370;8.552;2023-04-16T04:50:18;96755.44;;;6.43;87.89
77631;BME280;66798;47.370;8.552;2023-04-16T04:52:44;96762.91;;;6.51;87.50
77631;BME280;66798;47.370;8.552;2023-04-16T04:55:09;96758.38;;;6.47;87.65
77631;BME280;66798;47.370;8.552;2023-04-16T04:57:35;96761.47;;;6.44;87.57
77631;BME280;66798;47.370;8.552;2023-04-16T05:00:00;96762.81;;;6.46;87.83
77631;BME280;66798;47.370;8.552;2023-04-16T05:02:28;96764.09;;;6.44;87.61
77631;BME280;66798;47.370;8.552;2023-04-16T05:04:53;96767.06;;;6.52;87.52
77631;BME280;66798;47.370;8.552;2023-04-16T05:07:20;96771.84;;;6.55;87.18
77631;BME280;66798;47.370;8.552;2023-04-16T05:09:46;96767.09;;;6.69;87.11
77631;BME280;66798;47.370;8.552;2023-04-16T05:12:11;96769.78;;;6.74;87.31
77631;BME280;66798;47.370;8.552;2023-04-16T05:14:36;96775.41;;;6.49;87.97
77631;BME280;66798;47.370;8.552;2023-04-16T05:17:02;96778.72;;;6.62;88.12
77631;BME280;66798;47.370;8.552;2023-04-16T05:19:27;96770.03;;;6.73;87.29
77631;BME280;66798;47.370;8.552;2023-04-16T05:21:53;96779.06;;;6.65;87.50
77631;BME280;66798;47.370;8.552;2023-04-16T05:24:19;96770.34;;;6.76;87.28
77631;BME280;66798;47.370;8.552;2023-04-16T05:26:44;96775.66;;;6.81;87.35
77631;BME280;66798;47.370;8.552;2023-04-16T05:29:10;96776.84;;;6.74;86.98
77631;BME280;66798;47.370;8.552;2023-04-16T05:31:35;96771.75;;;6.67;86.49
77631;BME280;66798;47.370;8.552;2023-04-16T05:34:01;96782.84;;;6.57;87.31
77631;BME280;66798;47.370;8.552;2023-04-16T05:36:26;96782.53;;;6.71;87.19
77631;BME280;66798;47.370;8.552;2023-04-16T05:38:52;96777.88;;;6.73;87.14
77631;BME280;66798;47.370;8.552;2023-04-16T05:41:17;96780.06;;;6.47;87.52
77631;BME280;66798;47.370;8.552;2023-04-16T05:43:42;96792.97;;;6.54;87.31
77631;BME280;66798;47.370;8.552;2023-04-16T05:46:08;96789.75;;;6.64;87.38
77631;BME280;66798;47.370;8.552;2023-04-16T05:48:33;96789.66;;;6.58;87.40
77631;BME280;66798;47.370;8.552;2023-04-16T05:50:59;96789.41;;;6.60;87.53
77631;BME280;66798;47.370;8.552;2023-04-16T05:53:26;96793.00;;;6.71;87.42
77631;BME280;66798;47.370;8.552;2023-04-16T05:55:51;96797.47;;;6.42;88.00
77631;BME280;66798;47.370;8.552;2023-04-16T05:58:17;96798.34;;;6.47;88.45
77631;BME280;66798;47.370;8.552;2023-04-16T06:00:42;96802.28;;;6.78;87.71
77631;BME280;66798;47.370;8.552;2023-04-16T06:03:08;96802.47;;;6.60;87.85
77631;BME280;66798;47.370;8.552;2023-04-16T06:05:33;96811.22;;;6.66;87.10
77631;BME280;66798;47.370;8.552;2023-04-16T06:07:59;96807.97;;;6.58;87.40
77631;BME280;66798;47.370;8.552;2023-04-16T06:10:24;96810.66;;;6.64;87.16
77631;BME280;66798;47.370;8.552;2023-04-16T06:12:50;96806.06;;;6.71;86.79
77631;BME280;66798;47.370;8.552;2023-04-16T06:15:15;96812.56;;;6.68;85.44
77631;BME280;66798;47.370;8.552;2023-04-16T06:17:41;96811.59;;;6.57;87.48
77631;BME280;66798;47.370;8.552;2023-04-16T06:20:07;96812.47;;;6.46;88.32
77631;BME280;66798;47.370;8.552;2023-04-16T06:22:32;96812.06;;;6.54;88.24
77631;BME280;66798;47.370;8.552;2023-04-16T06:24:58;96816.38;;;6.77;87.45
77631;BME280;66798;47.370;8.552;2023-04-16T06:27:23;96818.41;;;6.58;87.46
77631;BME280;66798;47.370;8.552;2023-04-16T06:29:49;96814.72;;;6.43;88.28
77631;BME280;66798;47.370;8.552;2023-04-16T06:32:14;96825.19;;;6.43;89.20
77631;BME280;66798;47.370;8.552;2023-04-16T06:34:41;96825.34;;;6.53;88.53
77631;BME280;66798;47.370;8.552;2023-04-16T06:37:07;96825.41;;;6.70;88.30
77631;BME280;66798;47.370;8.552;2023-04-16T06:39:32;96833.63;;;6.62;87.46
77631;BME280;66798;47.370;8.552;2023-04-16T06:41:58;96829.75;;;6.81;87.12
77631;BME280;66798;47.370;8.552;2023-04-16T06:44:23;96835.25;;;6.96;86.56
77631;BME280;66798;47.370;8.552;2023-04-16T06:46:49;96830.41;;;6.88;86.30
77631;BME280;66798;47.370;8.552;2023-04-16T06:49:15;96838.75;;;6.56;86.40
77631;BME280;66798;47.370;8.552;2023-04-16T06:51:41;96841.34;;;6.40;87.08
77631;BME280;66798;47.370;8.552;2023-04-16T06:54:06;96832.72;;;6.39;87.95
77631;BME280;66798;47.370;8.552;2023-04-16T06:56:31;96848.88;;;6.24;88.88
77631;BME280;66798;47.370;8.552;2023-04-16T06:58:57;96847.84;;;6.25;88.92
77631;BME280;66798;47.370;8.552;2023-04-16T07:01:25;96853.09;;;6.25;88.14
77631;BME280;66798;47.370;8.552;2023-04-16T07:03:51;96852.13;;;6.31;87.94
77631;BME280;66798;47.370;8.552;2023-04-16T07:06:16;96849.97;;;6.40;87.55
77631;BME280;66798;47.370;8.552;2023-04-16T07:08:42;96849.91;;;6.23;87.47
77631;BME280;66798;47.370;8.552;2023-04-16T07:11:07;96850.78;;;6.29;86.91
77631;BME280;66798;47.370;8.552;2023-04-16T07:13:32;96856.66;;;6.65;87.77
77631;BME280;66798;47.370;8.552;2023-04-16T07:15:58;96854.16;;;6.70;87.05
77631;BME280;66798;47.370;8.552;2023-04-16T07:18:23;96849.47;;;6.43;88.37
77631;BME280;66798;47.370;8.552;2023-04-16T07:20:49;96848.13;;;6.41;88.49
77631;BME280;66798;47.370;8.552;2023-04-16T07:23:16;96844.94;;;6.67;88.57
77631;BME280;66798;47.370;8.552;2023-04-16T07:25:41;96845.56;;;6.57;86.45
77631;BME280;66798;47.370;8.552;2023-04-16T07:28:07;96852.94;;;6.61;85.32
77631;BME280;66798;47.370;8.552;2023-04-16T07:30:32;96858.19;;;6.61;86.49
77631;BME280;66798;47.370;8.552;2023-04-16T07:33:02;96857.84;;;6.57;87.67
77631;BME280;66798;47.370;8.552;2023-04-16T07:35:28;96852.53;;;6.52;87.49
77631;BME280;66798;47.370;8.552;2023-04-16T07:37:54;96860.41;;;6.40;87.47
77631;BME280;66798;47.370;8.552;2023-04-16T07:40:20;96858.34;;;6.42;87.46
77631;BME280;66798;47.370;8.552;2023-04-16T07:42:45;96869.69;;;6.48;87.33
77631;BME280;66798;47.370;8.552;2023-04-16T07:45:11;96868.13;;;6.47;87.61
77631;BME280;66798;47.370;8.552;2023-04-16T07:47:36;96868.94;;;6.64;88.27
77631;BME280;66798;47.370;8.552;2023-04-16T07:50:02;96872.28;;;6.48;87.77
77631;BME280;66798;47.370;8.552;2023-04-16T07:52:27;96873.47;;;6.40;87.35
77631;BME280;66798;47.370;8.552;2023-04-16T07:54:52;96877.34;;;6.37;87.58
77631;BME280;66798;47.370;8.552;2023-04-16T07:57:18;96884.41;;;6.37;87.62
77631;BME280;66798;47.370;8.552;2023-04-16T07:59:43;96884.47;;;6.42;87.58
77631;BME280;66798;47.370;8.552;2023-04-16T08:02:13;96887.88;;;6.43;87.90
77631;BME280;66798;47.370;8.552;2023-04-16T08:04:40;96892.22;;;6.37;87.31
77631;BME280;66798;47.370;8.552;2023-04-16T08:07:06;96886.75;;;6.38;87.17
77631;BME280;66798;47.370;8.552;2023-04-16T08:09:32;96894.72;;;6.44;86.29
77631;BME280;66798;47.370;8.552;2023-04-16T08:11:59;96897.00;;;6.28;87.40
77631;BME280;66798;47.370;8.552;2023-04-16T08:14:24;96900.28;;;6.35;87.82
77631;BME280;66798;47.370;8.552;2023-04-16T08:16:50;96905.16;;;6.44;87.48
77631;BME280;66798;47.370;8.552;2023-04-16T08:19:15;96898.34;;;6.71;88.10
77631;BME280;66798;47.370;8.552;2023-04-16T08:21:41;96912.44;;;6.70;87.72
77631;BME280;66798;47.370;8.552;2023-04-16T08:24:07;96913.25;;;6.71;87.86
77631;BME280;66798;47.370;8.552;2023-04-16T08:26:32;96909.19;;;6.92;87.44
77631;BME280;66798;47.370;8.552;2023-04-16T08:28:57;96905.63;;;7.15;86.54
77631;BME280;66798;47.370;8.552;2023-04-16T08:31:23;96911.94;;;6.85;86.89
77631;BME280;66798;47.370;8.552;2023-04-16T08:33:48;96912.00;;;6.90;86.88
77631;BME280;66798;47.370;8.552;2023-04-16T08:36:14;96908.59;;;6.90;86.76
77631;BME280;66798;47.370;8.552;2023-04-16T08:38:39;96909.13;;;6.75;87.96
77631;BME280;66798;47.370;8.552;2023-04-16T08:41:09;96904.91;;;6.74;86.69
77631;BME280;66798;47.370;8.552;2023-04-16T08:43:37;96920.44;;;6.64;87.33
77631;BME280;66798;47.370;8.552;2023-04-16T08:46:06;96921.38;;;6.74;86.76
77631;BME280;66798;47.370;8.552;2023-04-16T08:48:33;96915.41;;;6.62;87.65
77631;BME280;66798;47.370;8.552;2023-04-16T08:51:00;96920.38;;;6.47;86.67
77631;BME280;66798;47.370;8.552;2023-04-16T08:53:42;96922.22;;;6.75;86.48
77631;BME280;66798;47.370;8.552;2023-04-16T08:56:12;96914.06;;;6.88;85.94
77631;BME280;66798;47.370;8.552;2023-04-16T08:58:39;96920.91;;;6.61;86.46
77631;BME280;66798;47.370;8.552;2023-04-16T09:01:05;96923.53;;;6.49;87.64
77631;BME280;66798;47.370;8.552;2023-04-16T09:03:33;96925.25;;;6.43;87.20
77631;BME280;66798;47.370;8.552;2023-04-16T09:06:00;96935.72;;;6.72;87.24
77631;BME280;66798;47.370;8.552;2023-04-16T09:08:28;96929.31;;;6.63;86.02
77631;BME280;66798;47.370;8.552;2023-04-16T09:10:55;96931.13;;;6.50;86.41
77631;BME280;66798;47.370;8.552;2023-04-16T09:13:21;96938.25;;;6.67;87.46
77631;BME280;66798;47.370;8.552;2023-04-16T09:15:52;96933.09;;;6.43;86.38
77631;BME280;66798;47.370;8.552;2023-04-16T09:18:17;96938.84;;;6.57;86.69
77631;BME280;66798;47.370;8.552;2023-04-16T09:20:44;96940.16;;;6.71;87.17
77631;BME280;66798;47.370;8.552;2023-04-16T09:23:10;96937.50;;;6.83;86.51
77631;BME280;66798;47.370;8.552;2023-04-16T09:25:35;96936.41;;;7.25;86.19
77631;BME280;66798;47.370;8.552;2023-04-16T09:28:02;96939.81;;;7.25;84.85
77631;BME280;66798;47.370;8.552;2023-04-16T09:30:28;96940.47;;;7.32;86.49
77631;BME280;66798;47.370;8.552;2023-04-16T09:35:46;96947.50;;;7.82;84.81
77631;BME280;66798;47.370;8.552;2023-04-16T09:38:12;96946.84;;;7.92;82.90
77631;BME280;66798;47.370;8.552;2023-04-16T09:40:37;96942.63;;;7.91;85.39
77631;BME280;66798;47.370;8.552;2023-04-16T09:43:15;96946.88;;;7.58;85.29
77631;BME280;66798;47.370;8.552;2023-04-16T09:45:53;96946.00;;;7.53;84.83
77631;BME280;66798;47.370;8.552;2023-04-16T09:48:30;96950.78;;;7.56;84.64
77631;BME280;66798;47.370;8.552;2023-04-16T09:50:56;96952.44;;;7.45;86.90
77631;BME280;66798;47.370;8.552;2023-04-16T09:53:26;96954.19;;;7.73;86.04
77631;BME280;66798;47.370;8.552;2023-04-16T09:55:55;96947.78;;;8.03;85.54
77631;BME280;66798;47.370;8.552;2023-04-16T09:58:22;96952.22;;;8.02;84.04
77631;BME280;66798;47.370;8.552;2023-04-16T10:01:10;96955.59;;;7.64;85.44
77631;BME280;66798;47.370;8.552;2023-04-16T10:03:38;96958.06;;;7.71;84.80
77631;BME280;66798;47.370;8.552;2023-04-16T10:06:13;96961.06;;;7.62;84.10
77631;BME280;66798;47.370;8.552;2023-04-16T10:08:43;96957.91;;;7.77;84.84
77631;BME280;66798;47.370;8.552;2023-04-16T10:11:08;96962.25;;;8.44;83.31
77631;BME280;66798;47.370;8.552;2023-04-16T10:13:34;96955.72;;;8.08;83.07
77631;BME280;66798;47.370;8.552;2023-04-16T10:16:02;96966.94;;;8.03;85.83
77631;BME280;66798;47.370;8.552;2023-04-16T10:18:28;96965.28;;;7.80;84.58
77631;BME280;66798;47.370;8.552;2023-04-16T10:20:54;96960.91;;;7.69;84.25
77631;BME280;66798;47.370;8.552;2023-04-16T10:23:21;96966.22;;;7.40;85.79
77631;BME280;66798;47.370;8.552;2023-04-16T10:25:48;96964.41;;;7.75;84.80
77631;BME280;66798;47.370;8.552;2023-04-16T10:28:15;96961.41;;;7.66;84.88
77631;BME280;66798;47.370;8.552;2023-04-16T10:30:46;96967.34;;;7.44;85.89
77631;BME280;66798;47.370;8.552;2023-04-16T10:33:40;96955.56;;;7.98;84.96
77631;BME280;66798;47.370;8.552;2023-04-16T10:36:25;96961.94;;;8.85;82.92
77631;BME280;66798;47.370;8.552;2023-04-16T10:38:56;96968.00;;;8.63;80.86
77631;BME280;66798;47.370;8.552;2023-04-16T10:41:22;96962.47;;;8.87;82.64
77631;BME280;66798;47.370;8.552;2023-04-16T10:43:49;96963.41;;;8.76;83.34
77631;BME280;66798;47.370;8.552;2023-04-16T10:46:26;96964.09;;;8.93;81.44
77631;BME280;66798;47.370;8.552;2023-04-16T10:48:55;96965.03;;;9.04;82.42
77631;BME280;66798;47.370;8.552;2023-04-16T10:51:29;96958.63;;;9.22;81.13
77631;BME280;66798;47.370;8.552;2023-04-16T10:56:43;96955.75;;;8.30;82.30
77631;BME280;66798;47.370;8.552;2023-04-16T10:59:10;96953.38;;;8.28;80.82
77631;BME280;66798;47.370;8.552;2023-04-16T11:01:48;96964.44;;;8.53;84.60
77631;BME280;66798;47.370;8.552;2023-04-16T11:07:46;96955.63;;;8.03;83.25
77631;BME280;66798;47.370;8.552;2023-04-16T11:09:58;96961.47;;;8.27;84.51
77631;BME280;66798;47.370;8.552;2023-04-16T11:15:05;96961.59;;;8.54;84.13
77631;BME280;66798;47.370;8.552;2023-04-16T11:19:59;96962.47;;;8.65;83.66
77631;BME280;66798;47.370;8.552;2023-04-16T11:22:26;96958.28;;;8.42;84.42
77631;BME280;66798;47.370;8.552;2023-04-16T11:24:55;96963.75;;;8.62;85.63
77631;BME280;66798;47.370;8.552;2023-04-16T11:27:22;96967.13;;;8.80;84.26
77631;BME280;66798;47.370;8.552;2023-04-16T11:30:02;96961.47;;;8.66;83.30
77631;BME280;66798;47.370;8.552;2023-04-16T11:32:33;96961.16;;;8.62;83.62
77631;BME280;66798;47.370;8.552;2023-04-16T11:35:00;96962.28;;;8.27;84.16
77631;BME280;66798;47.370;8.552;2023-04-16T11:37:33;96961.44;;;8.05;84.99
77631;BME280;66798;47.370;8.552;2023-04-16T11:39:59;96969.09;;;7.90;83.94
77631;BME280;66798;47.370;8.552;2023-04-16T11:42:26;96966.97;;;7.86;85.17
77631;BME280;66798;47.370;8.552;2023-04-16T11:44:57;96977.09;;;7.83;85.46
77631;BME280;66798;47.370;8.552;2023-04-16T11:47:25;96971.25;;;7.59;85.79
77631;BME280;66798;47.370;8.552;2023-04-16T11:49:51;96967.91;;;7.63;84.59
77631;BME280;66798;47.370;8.552;2023-04-16T11:52:30;96967.47;;;7.88;84.53
77631;BME280;66798;47.370;8.552;2023-04-16T11:54:57;96971.50;;;8.13;85.84
77631;BME280;66798;47.370;8.552;2023-04-16T11:57:24;96965.09;;;8.04;84.14
77631;BME280;66798;47.370;8.552;2023-04-16T11:59:50;96970.03;;;7.83;85.29
77631;BME280;66798;47.370;8.552;2023-04-16T12:02:16;96968.97;;;8.18;86.44
77631;BME280;66798;47.370;8.552;2023-04-16T12:04:41;96973.53;;;8.28;84.04
77631;BME280;66798;47.370;8.552;2023-04-16T12:07:13;96968.22;;;8.01;85.37
77631;BME280;66798;47.370;8.552;2023-04-16T12:09:42;96969.06;;;8.06;85.37
77631;BME280;66798;47.370;8.552;2023-04-16T12:12:27;96977.38;;;8.20;86.03
77631;BME280;66798;47.370;8.552;2023-04-16T12:14:55;96974.56;;;8.44;86.39
77631;BME280;66798;47.370;8.552;2023-04-16T12:17:21;96972.25;;;8.91;84.28
77631;BME280;66798;47.370;8.552;2023-04-16T12:19:49;96973.44;;;8.01;85.55
77631;BME280;66798;47.370;8.552;2023-04-16T12:22:16;96979.25;;;8.42;83.05
77631;BME280;66798;47.370;8.552;2023-04-16T12:24:41;96975.59;;;8.43;83.81
77631;BME280;66798;47.370;8.552;2023-04-16T12:27:07;96977.19;;;8.27;84.94
77631;BME280;66798;47.370;8.552;2023-04-16T12:29:33;96983.38;;;7.99;85.01
77631;BME280;66798;47.370;8.552;2023-04-16T12:31:58;96984.56;;;8.08;86.26
77631;BME280;66798;47.370;8.552;2023-04-16T12:34:24;96983.84;;;8.35;84.99
77631;BME280;66798;47.370;8.552;2023-04-16T12:37:04;96985.75;;;7.83;85.91
77631;BME280;66798;47.370;8.552;2023-04-16T12:39:30;96986.19;;;8.53;85.89
77631;BME280;66798;47.370;8.552;2023-04-16T12:41:56;96976.16;;;8.28;86.19
77631;BME280;66798;47.370;8.552;2023-04-16T12:44:21;96977.00;;;8.50;87.03
77631;BME280;66798;47.370;8.552;2023-04-16T12:46:46;96979.56;;;8.28;85.24
77631;BME280;66798;47.370;8.552;2023-04-16T12:49:12;96981.78;;;8.37;85.86
77631;BME280;66798;47.370;8.552;2023-04-16T12:51:37;96981.81;;;8.20;85.60
77631;BME280;66798;47.370;8.552;2023-04-16T12:54:05;96976.88;;;8.23;86.89
77631;BME280;66798;47.370;8.552;2023-04-16T12:56:34;96989.75;;;8.25;87.13
77631;BME280;66798;47.370;8.552;2023-04-16T12:59:01;96985.25;;;8.20;86.43
77631;BME280;66798;47.370;8.552;2023-04-16T13:01:26;96980.84;;;8.26;86.12
77631;BME280;66798;47.370;8.552;2023-04-16T13:03:52;96984.75;;;8.62;87.31
77631;BME280;66798;47.370;8.552;2023-04-16T13:06:17;96991.59;;;9.12;85.44
77631;BME280;66798;47.370;8.552;2023-04-16T13:08:43;96993.69;;;9.38;83.20
77631;BME280;66798;47.370;8.552;2023-04-16T13:11:09;96985.22;;;8.81;85.41
77631;BME280;66798;47.370;8.552;2023-04-16T13:13:35;96988.03;;;9.24;84.61
77631;BME280;66798;47.370;8.552;2023-04-16T13:16:01;96978.28;;;8.70;85.21
77631;BME280;66798;47.370;8.552;2023-04-16T13:18:28;96989.75;;;8.64;84.08
77631;BME280;66798;47.370;8.552;2023-04-16T13:20:54;96982.16;;;8.67;86.51